createdAt,value
2018-12-17T00:00:09.519Z,78.66
2018-12-17T00:01:09.440Z,78.85
2018-12-17T00:02:09.377Z,78.47
2018-12-17T00:03:09.313Z,78.75
2018-12-17T00:04:09.252Z,78.75
2018-12-17T00:05:09.191Z,78.75
2018-12-17T00:06:09.128Z,78.47
2018-12-17T00:07:09.067Z,78.56
2018-12-17T00:08:09.004Z,78.95
2018-12-17T00:09:08.943Z,78.56
2018-12-17T00:10:08.881Z,78.47
2018-12-17T00:11:08.819Z,78.75
2018-12-17T00:12:08.757Z,78.66
2018-12-17T00:13:08.696Z,78.38
2018-12-17T00:14:08.633Z,78.47
2018-12-17T00:15:08.571Z,78.47
2018-12-17T00:16:08.510Z,78.47
2018-12-17T00:17:08.449Z,78.66
2018-12-17T00:18:08.388Z,78.75
2018-12-17T00:19:08.324Z,78.38
2018-12-17T00:20:08.262Z,78.66
2018-12-17T00:21:08.200Z,78.47
2018-12-17T00:22:08.143Z,78.66
2018-12-17T00:23:08.076Z,78.75
2018-12-17T00:24:08.014Z,78.66
2018-12-17T00:25:07.952Z,78.95
2018-12-17T00:26:07.891Z,78.85
2018-12-17T00:27:07.828Z,78.85
2018-12-17T00:28:08.342Z,78.66
2018-12-17T00:29:07.705Z,78.56
2018-12-17T00:30:07.643Z,78.85
2018-12-17T00:31:07.582Z,78.75
2018-12-17T00:32:07.520Z,78.66
2018-12-17T00:33:07.462Z,78.56
2018-12-17T00:34:07.396Z,78.38
2018-12-17T00:35:07.334Z,78.75
2018-12-17T00:36:07.271Z,78.75
2018-12-17T00:37:07.210Z,78.85
2018-12-17T00:38:07.147Z,78.56
2018-12-17T00:39:07.085Z,78.47
2018-12-17T00:40:07.023Z,78.47
2018-12-17T00:41:06.962Z,78.75
2018-12-17T00:42:06.899Z,78.47
2018-12-17T00:43:06.838Z,78.66
2018-12-17T00:44:06.777Z,78.56
2018-12-17T00:45:06.715Z,78.66
2018-12-17T00:46:06.652Z,78.28
2018-12-17T00:47:06.595Z,78.19
2018-12-17T00:48:06.530Z,78.28
2018-12-17T00:49:06.467Z,78.47
2018-12-17T00:50:06.406Z,78.09
2018-12-17T00:51:06.342Z,78.09
2018-12-17T00:52:06.281Z,78.38
2018-12-17T00:53:06.219Z,78.28
2018-12-17T00:54:06.157Z,78.19
2018-12-17T00:55:06.095Z,78.09
2018-12-17T00:56:06.033Z,78.09
2018-12-17T00:57:05.972Z,78.00
2018-12-17T00:58:05.999Z,78.09
2018-12-17T00:59:05.847Z,78.09
2018-12-17T01:00:05.786Z,78.19
2018-12-17T01:01:05.724Z,78.09
2018-12-17T01:02:05.663Z,78.00
2018-12-17T01:03:05.600Z,77.90
2018-12-17T01:04:05.538Z,77.90
2018-12-17T01:05:05.476Z,78.19
2018-12-17T01:06:05.413Z,77.81
2018-12-17T01:07:05.353Z,78.09
2018-12-17T01:08:05.290Z,78.09
2018-12-17T01:09:05.228Z,78.09
2018-12-17T01:10:05.168Z,78.00
2018-12-17T01:11:05.104Z,78.28
2018-12-17T01:12:05.045Z,78.00
2018-12-17T01:13:04.980Z,78.28
2018-12-17T01:14:04.917Z,78.00
2018-12-17T01:15:04.855Z,78.19
2018-12-17T01:16:04.795Z,78.19
2018-12-17T01:17:04.736Z,78.09
2018-12-17T01:18:04.765Z,78.19
2018-12-17T01:19:04.608Z,78.09
2018-12-17T01:20:04.547Z,77.81
2018-12-17T01:21:04.487Z,77.52
2018-12-17T01:22:04.424Z,77.62
2018-12-17T01:23:04.366Z,77.81
2018-12-17T01:24:04.299Z,77.71
2018-12-17T01:25:04.237Z,77.71
2018-12-17T01:26:04.175Z,77.71
2018-12-17T01:27:04.112Z,77.90
2018-12-17T01:28:04.051Z,77.43
2018-12-17T01:29:03.990Z,77.33
2018-12-17T01:30:03.927Z,77.52
2018-12-17T01:31:03.865Z,77.52
2018-12-17T01:32:03.803Z,77.33
2018-12-17T01:33:03.741Z,77.62
2018-12-17T01:34:03.680Z,77.43
2018-12-17T01:35:03.618Z,78.09
2018-12-17T01:36:03.557Z,77.90
2018-12-17T01:37:03.493Z,77.90
2018-12-17T01:38:03.431Z,78.19
2018-12-17T01:39:03.369Z,77.52
2018-12-17T01:40:03.310Z,77.71
2018-12-17T01:41:03.246Z,78.09
2018-12-17T01:42:03.183Z,78.00
2018-12-17T01:43:03.125Z,77.62
2018-12-17T01:44:03.060Z,78.09
2018-12-17T01:45:02.999Z,77.62
2018-12-17T01:46:02.934Z,77.71
2018-12-17T01:47:02.874Z,77.90
2018-12-17T01:48:02.813Z,77.71
2018-12-17T01:49:02.750Z,78.09
2018-12-17T01:50:02.737Z,77.90
2018-12-17T01:51:02.626Z,77.62
2018-12-17T01:52:02.564Z,78.09
2018-12-17T01:53:02.502Z,78.09
2018-12-17T01:54:02.439Z,77.43
2018-12-17T01:55:02.378Z,78.09
2018-12-17T01:56:02.315Z,78.09
2018-12-17T01:57:02.254Z,77.43
2018-12-17T01:58:02.192Z,77.90
2018-12-17T01:59:02.129Z,78.00
2018-12-17T02:00:02.068Z,77.90
2018-12-17T02:01:02.007Z,78.09
2018-12-17T02:02:01.944Z,78.09
2018-12-17T02:03:01.909Z,77.71
2018-12-17T02:04:01.820Z,78.09
2018-12-17T02:05:01.757Z,77.71
2018-12-17T02:06:01.698Z,77.90
2018-12-17T02:07:01.654Z,77.43
2018-12-17T02:08:01.572Z,77.43
2018-12-17T02:09:01.510Z,77.24
2018-12-17T02:10:01.449Z,77.52
2018-12-17T02:11:01.387Z,77.33
2018-12-17T02:12:01.325Z,77.62
2018-12-17T02:13:01.264Z,77.43
2018-12-17T02:14:01.200Z,77.43
2018-12-17T02:15:01.138Z,77.71
2018-12-17T02:16:01.078Z,77.33
2018-12-17T02:17:01.022Z,77.52
2018-12-17T02:18:00.953Z,77.43
2018-12-17T02:19:00.889Z,77.52
2018-12-17T02:20:00.828Z,77.24
2018-12-17T02:21:00.767Z,77.43
2018-12-17T02:22:00.706Z,77.43
2018-12-17T02:23:00.642Z,77.24
2018-12-17T02:24:00.581Z,77.71
2018-12-17T02:25:00.521Z,77.24
2018-12-17T02:26:00.456Z,77.71
2018-12-17T02:27:00.394Z,77.62
2018-12-17T02:28:00.334Z,77.71
2018-12-17T02:29:00.273Z,77.43
2018-12-17T02:30:00.213Z,77.81
2018-12-17T02:31:00.149Z,77.71
2018-12-17T02:32:00.091Z,77.71
2018-12-17T02:33:00.024Z,77.71
2018-12-17T02:33:59.966Z,77.71
2018-12-17T02:34:59.899Z,77.52
2018-12-17T02:35:59.841Z,77.33
2018-12-17T02:36:59.776Z,77.71
2018-12-17T02:37:59.801Z,77.43
2018-12-17T02:38:59.651Z,77.71
2018-12-17T02:39:59.588Z,77.43
2018-12-17T02:40:59.528Z,77.52
2018-12-17T02:41:59.464Z,77.71
2018-12-17T02:42:59.402Z,77.81
2018-12-17T02:43:59.340Z,77.43
2018-12-17T02:44:59.278Z,78.28
2018-12-17T02:45:59.215Z,77.71
2018-12-17T02:46:59.154Z,78.09
2018-12-17T02:47:59.093Z,78.19
2018-12-17T02:48:59.031Z,78.19
2018-12-17T02:49:58.970Z,78.00
2018-12-17T02:50:58.910Z,78.00
2018-12-17T02:51:58.844Z,78.00
2018-12-17T02:52:58.782Z,78.19
2018-12-17T02:53:58.719Z,78.09
2018-12-17T02:54:58.745Z,78.19
2018-12-17T02:55:58.596Z,78.19
2018-12-17T02:56:58.534Z,78.28
2018-12-17T02:57:58.472Z,78.28
2018-12-17T02:58:58.412Z,78.00
2018-12-17T02:59:58.356Z,78.28
2018-12-17T03:00:58.291Z,78.00
2018-12-17T03:01:58.224Z,78.00
2018-12-17T03:02:58.162Z,78.09
2018-12-17T03:03:58.107Z,78.09
2018-12-17T03:04:58.041Z,78.28
2018-12-17T03:05:57.977Z,78.28
2018-12-17T03:06:57.916Z,78.28
2018-12-17T03:07:57.855Z,78.38
2018-12-17T03:08:57.795Z,78.00
2018-12-17T03:09:57.729Z,78.28
2018-12-17T03:10:57.666Z,78.09
2018-12-17T03:11:57.608Z,78.09
2018-12-17T03:12:57.555Z,78.09
2018-12-17T03:13:57.482Z,78.19
2018-12-17T03:14:57.419Z,77.90
2018-12-17T03:15:57.357Z,78.28
2018-12-17T03:16:57.299Z,78.19
2018-12-17T03:17:57.233Z,77.90
2018-12-17T03:18:57.175Z,77.90
2018-12-17T03:19:57.109Z,77.90
2018-12-17T03:20:57.046Z,78.19
2018-12-17T03:21:56.987Z,77.90
2018-12-17T03:22:56.924Z,77.90
2018-12-17T03:23:56.861Z,77.90
2018-12-17T03:24:56.799Z,77.90
2018-12-17T03:25:56.738Z,78.19
2018-12-17T03:26:56.675Z,77.90
2018-12-17T03:27:56.617Z,78.00
2018-12-17T03:28:56.553Z,78.19
2018-12-17T03:29:56.490Z,77.90
2018-12-17T03:30:56.429Z,78.28
2018-12-17T03:31:56.370Z,78.09
2018-12-17T03:32:56.308Z,78.19
2018-12-17T03:33:56.245Z,77.90
2018-12-17T03:34:56.179Z,78.00
2018-12-17T03:35:56.121Z,77.90
2018-12-17T03:36:56.058Z,77.90
2018-12-17T03:37:55.992Z,77.90
2018-12-17T03:38:55.933Z,78.09
2018-12-17T03:39:55.869Z,77.90
2018-12-17T03:40:55.809Z,78.00
2018-12-17T03:41:55.745Z,77.71
2018-12-17T03:42:55.682Z,77.81
2018-12-17T03:43:55.623Z,78.00
2018-12-17T03:44:55.563Z,78.28
2018-12-17T03:45:55.500Z,78.28
2018-12-17T03:46:55.435Z,78.47
2018-12-17T03:47:55.374Z,78.19
2018-12-17T03:48:55.312Z,78.38
2018-12-17T03:49:55.253Z,78.28
2018-12-17T03:50:55.190Z,78.28
2018-12-17T03:51:55.126Z,78.28
2018-12-17T03:52:55.063Z,78.28
2018-12-17T03:53:55.000Z,78.28
2018-12-17T03:54:54.940Z,78.09
2018-12-17T03:55:54.879Z,78.00
2018-12-17T03:56:54.820Z,78.47
2018-12-17T03:57:54.752Z,78.47
2018-12-17T03:58:59.243Z,78.47
2018-12-17T03:59:54.629Z,78.09
2018-12-17T04:00:54.567Z,78.47
2018-12-17T04:01:54.512Z,78.47
2018-12-17T04:02:54.444Z,78.09
2018-12-17T04:03:54.382Z,78.28
2018-12-17T04:04:54.320Z,78.09
2018-12-17T04:05:54.258Z,78.19
2018-12-17T04:06:54.200Z,78.19
2018-12-17T04:07:54.135Z,78.28
2018-12-17T04:08:54.073Z,78.47
2018-12-17T04:09:54.100Z,78.47
2018-12-17T04:10:53.948Z,78.28
2018-12-17T04:11:53.887Z,78.56
2018-12-17T04:12:53.823Z,78.47
2018-12-17T04:13:53.763Z,78.38
2018-12-17T04:14:53.700Z,78.56
2018-12-17T04:15:53.638Z,78.56
2018-12-17T04:16:53.577Z,78.28
2018-12-17T04:17:53.514Z,78.47
2018-12-17T04:18:53.451Z,78.56
2018-12-17T04:19:53.389Z,78.47
2018-12-17T04:20:53.327Z,78.28
2018-12-17T04:21:53.267Z,78.19
2018-12-17T04:22:53.205Z,78.19
2018-12-17T04:23:53.142Z,78.56
2018-12-17T04:24:53.079Z,78.28
2018-12-17T04:25:53.017Z,78.28
2018-12-17T04:26:52.955Z,78.47
2018-12-17T04:27:52.892Z,78.56
2018-12-17T04:28:52.832Z,78.66
2018-12-17T04:29:52.804Z,78.75
2018-12-17T04:30:52.710Z,78.56
2018-12-17T04:31:52.645Z,78.56
2018-12-17T04:32:52.583Z,78.28
2018-12-17T04:33:52.521Z,78.28
2018-12-17T04:34:52.459Z,78.66
2018-12-17T04:35:52.406Z,78.85
2018-12-17T04:36:52.340Z,78.66
2018-12-17T04:37:52.276Z,78.66
2018-12-17T04:38:52.210Z,78.85
2018-12-17T04:39:52.148Z,78.66
2018-12-17T04:40:52.089Z,78.75
2018-12-17T04:41:52.025Z,78.66
2018-12-17T04:42:51.964Z,78.66
2018-12-17T04:43:51.902Z,78.75
2018-12-17T04:44:51.839Z,78.66
2018-12-17T04:45:51.779Z,78.38
2018-12-17T04:46:51.714Z,78.75
2018-12-17T04:47:51.653Z,78.75
2018-12-17T04:48:51.591Z,78.75
2018-12-17T04:49:51.528Z,78.19
2018-12-17T04:50:51.471Z,78.75
2018-12-17T04:51:51.404Z,78.75
2018-12-17T04:52:51.344Z,78.66
2018-12-17T04:53:51.280Z,78.66
2018-12-17T04:54:51.219Z,78.75
2018-12-17T04:55:51.156Z,78.66
2018-12-17T04:56:51.096Z,78.47
2018-12-17T04:57:51.032Z,78.75
2018-12-17T04:58:50.975Z,78.95
2018-12-17T04:59:50.909Z,78.56
2018-12-17T05:00:50.848Z,78.66
2018-12-17T05:01:50.784Z,78.66
2018-12-17T05:02:50.732Z,78.75
2018-12-17T05:03:50.660Z,78.47
2018-12-17T05:04:50.600Z,78.56
2018-12-17T05:05:50.536Z,78.56
2018-12-17T05:06:50.474Z,78.47
2018-12-17T05:07:50.421Z,78.38
2018-12-17T05:08:50.353Z,78.38
2018-12-17T05:09:50.288Z,78.56
2018-12-17T05:10:50.227Z,78.95
2018-12-17T05:11:50.167Z,78.38
2018-12-17T05:12:50.105Z,78.47
2018-12-17T05:13:50.040Z,78.66
2018-12-17T05:14:49.980Z,78.56
2018-12-17T05:15:49.917Z,78.38
2018-12-17T05:16:49.863Z,78.47
2018-12-17T05:17:49.793Z,78.38
2018-12-17T05:18:49.735Z,78.38
2018-12-17T05:19:49.672Z,78.47
2018-12-17T05:20:49.606Z,78.66
2018-12-17T05:21:49.544Z,78.56
2018-12-17T05:22:49.482Z,78.19
2018-12-17T05:23:49.422Z,78.47
2018-12-17T05:24:49.359Z,78.28
2018-12-17T05:25:49.296Z,78.47
2018-12-17T05:26:49.234Z,78.47
2018-12-17T05:27:49.172Z,78.28
2018-12-17T05:28:49.110Z,78.38
2018-12-17T05:29:49.047Z,78.38
2018-12-17T05:30:48.988Z,78.38
2018-12-17T05:31:48.927Z,78.28
2018-12-17T05:32:48.863Z,78.47
2018-12-17T05:33:48.801Z,78.47
2018-12-17T05:34:48.738Z,78.28
2018-12-17T05:35:48.678Z,78.19
2018-12-17T05:36:48.614Z,78.19
2018-12-17T05:37:48.555Z,78.38
2018-12-17T05:38:48.491Z,78.47
2018-12-17T05:39:48.429Z,78.47
2018-12-17T05:40:48.369Z,78.19
2018-12-17T05:41:48.303Z,78.28
2018-12-17T05:42:48.242Z,78.47
2018-12-17T05:43:48.183Z,78.47
2018-12-17T05:44:48.120Z,78.56
2018-12-17T05:45:48.057Z,78.47
2018-12-17T05:46:48.002Z,78.19
2018-12-17T05:47:47.933Z,78.56
2018-12-17T05:48:47.872Z,78.38
2018-12-17T05:49:47.808Z,78.47
2018-12-17T05:50:47.746Z,78.47
2018-12-17T05:51:47.686Z,78.47
2018-12-17T05:52:47.623Z,78.28
2018-12-17T05:53:47.645Z,78.28
2018-12-17T05:54:47.499Z,78.38
2018-12-17T05:55:47.437Z,78.19
2018-12-17T05:56:47.378Z,78.38
2018-12-17T05:57:47.311Z,78.38
2018-12-17T05:58:47.250Z,78.38
2018-12-17T05:59:47.191Z,78.19
2018-12-17T06:00:47.127Z,78.47
2018-12-17T06:01:47.065Z,78.38
2018-12-17T06:02:47.004Z,78.56
2018-12-17T06:03:46.939Z,78.19
2018-12-17T06:04:46.885Z,78.47
2018-12-17T06:05:46.818Z,78.19
2018-12-17T06:06:46.754Z,78.38
2018-12-17T06:07:46.693Z,78.75
2018-12-17T06:08:46.630Z,78.56
2018-12-17T06:09:46.568Z,78.38
2018-12-17T06:10:46.506Z,78.19
2018-12-17T06:11:46.444Z,78.28
2018-12-17T06:12:46.388Z,78.19
2018-12-17T06:13:46.320Z,78.28
2018-12-17T06:14:46.258Z,78.19
2018-12-17T06:15:46.321Z,78.19
2018-12-17T06:16:46.136Z,78.38
2018-12-17T06:17:46.074Z,78.38
2018-12-17T06:18:46.013Z,78.19
2018-12-17T06:19:45.950Z,78.47
2018-12-17T06:20:45.886Z,78.38
2018-12-17T06:21:45.822Z,78.38
2018-12-17T06:22:45.765Z,78.38
2018-12-17T06:23:45.701Z,78.38
2018-12-17T06:24:45.641Z,78.28
2018-12-17T06:25:45.577Z,78.47
2018-12-17T06:26:45.517Z,78.38
2018-12-17T06:27:45.452Z,78.38
2018-12-17T06:28:45.392Z,78.19
2018-12-17T06:29:45.332Z,78.47
2018-12-17T06:30:45.265Z,78.19
2018-12-17T06:31:45.232Z,78.19
2018-12-17T06:32:45.143Z,78.28
2018-12-17T06:33:45.079Z,78.38
2018-12-17T06:34:45.018Z,78.38
2018-12-17T06:35:44.959Z,78.28
2018-12-17T06:36:44.895Z,78.28
2018-12-17T06:37:44.831Z,78.56
2018-12-17T06:38:44.770Z,78.56
2018-12-17T06:39:44.713Z,78.38
2018-12-17T06:40:44.650Z,78.56
2018-12-17T06:41:44.586Z,78.47
2018-12-17T06:42:44.522Z,78.38
2018-12-17T06:43:44.464Z,78.56
2018-12-17T06:44:44.399Z,78.75
2018-12-17T06:45:44.337Z,78.47
2018-12-17T06:46:44.277Z,78.66
2018-12-17T06:47:44.212Z,78.47
2018-12-17T06:48:44.150Z,78.47
2018-12-17T06:49:44.092Z,78.56
2018-12-17T06:50:44.026Z,78.47
2018-12-17T06:51:43.964Z,78.66
2018-12-17T06:52:43.906Z,78.38
2018-12-17T06:53:43.842Z,78.47
2018-12-17T06:54:44.689Z,78.47
2018-12-17T06:55:43.721Z,78.56
2018-12-17T06:56:43.654Z,78.47
2018-12-17T06:57:43.595Z,78.47
2018-12-17T06:58:43.532Z,78.95
2018-12-17T06:59:43.467Z,78.47
2018-12-17T07:00:43.408Z,78.56
2018-12-17T07:01:43.370Z,78.38
2018-12-17T07:02:43.280Z,78.66
2018-12-17T07:03:43.219Z,78.47
2018-12-17T07:04:43.158Z,78.47
2018-12-17T07:05:43.096Z,78.47
2018-12-17T07:06:43.033Z,78.56
2018-12-17T07:07:42.972Z,78.28
2018-12-17T07:08:42.969Z,78.66
2018-12-17T07:09:42.847Z,78.38
2018-12-17T07:10:42.785Z,78.19
2018-12-17T07:11:42.726Z,78.47
2018-12-17T07:12:42.661Z,78.38
2018-12-17T07:13:42.607Z,78.47
2018-12-17T07:14:42.538Z,78.19
2018-12-17T07:15:42.512Z,78.19
2018-12-17T07:16:42.414Z,78.47
2018-12-17T07:17:42.351Z,78.66
2018-12-17T07:18:42.287Z,78.38
2018-12-17T07:19:42.229Z,78.95
2018-12-17T07:20:42.168Z,79.14
2018-12-17T07:21:42.102Z,78.66
2018-12-17T07:22:42.042Z,78.85
2018-12-17T07:23:41.979Z,78.85
2018-12-17T07:24:41.923Z,78.95
2018-12-17T07:25:41.855Z,78.75
2018-12-17T07:26:41.793Z,78.95
2018-12-17T07:27:42.149Z,78.85
2018-12-17T07:28:41.670Z,78.85
2018-12-17T07:29:41.606Z,78.85
2018-12-17T07:30:41.550Z,78.95
2018-12-17T07:31:41.483Z,78.95
2018-12-17T07:32:41.423Z,78.95
2018-12-17T07:33:41.358Z,78.85
2018-12-17T07:34:41.296Z,78.95
2018-12-17T07:35:41.237Z,78.95
2018-12-17T07:36:41.173Z,78.85
2018-12-17T07:37:41.110Z,78.75
2018-12-17T07:38:41.049Z,78.75
2018-12-17T07:39:40.988Z,78.75
2018-12-17T07:40:40.925Z,78.75
2018-12-17T07:41:40.948Z,78.75
2018-12-17T07:42:40.800Z,78.85
2018-12-17T07:43:40.740Z,78.85
2018-12-17T07:44:40.676Z,78.85
2018-12-17T07:45:40.615Z,78.85
2018-12-17T07:46:40.556Z,78.75
2018-12-17T07:47:40.494Z,78.75
2018-12-17T07:48:40.431Z,78.85
2018-12-17T07:49:40.367Z,78.75
2018-12-17T07:50:40.576Z,78.75
2018-12-17T07:51:40.242Z,78.47
2018-12-17T07:52:40.182Z,78.75
2018-12-17T07:53:40.119Z,78.47
2018-12-17T07:54:40.056Z,78.56
2018-12-17T07:55:39.995Z,78.56
2018-12-17T07:56:39.934Z,78.56
2018-12-17T07:57:39.874Z,78.47
2018-12-17T07:58:39.808Z,78.47
2018-12-17T07:59:39.756Z,78.75
2018-12-17T08:00:39.686Z,78.56
2018-12-17T08:01:39.621Z,78.66
2018-12-17T08:02:39.559Z,78.75
2018-12-17T08:03:39.498Z,78.85
2018-12-17T08:04:39.441Z,78.75
2018-12-17T08:05:39.374Z,78.85
2018-12-17T08:06:39.313Z,78.85
2018-12-17T08:07:39.250Z,78.66
2018-12-17T08:08:39.188Z,78.85
2018-12-17T08:09:39.127Z,78.85
2018-12-17T08:10:39.066Z,78.75
2018-12-17T08:11:39.006Z,78.75
2018-12-17T08:12:38.942Z,78.95
2018-12-17T08:13:38.882Z,78.75
2018-12-17T08:14:38.815Z,78.85
2018-12-17T08:15:38.755Z,78.56
2018-12-17T08:16:38.692Z,78.56
2018-12-17T08:17:38.630Z,78.75
2018-12-17T08:18:38.569Z,78.56
2018-12-17T08:19:38.508Z,78.66
2018-12-17T08:20:38.444Z,79.14
2018-12-17T08:21:38.384Z,78.85
2018-12-17T08:22:38.320Z,78.85
2018-12-17T08:23:38.259Z,79.04
2018-12-17T08:24:38.195Z,78.85
2018-12-17T08:25:38.134Z,78.85
2018-12-17T08:26:38.075Z,79.23
2018-12-17T08:27:38.058Z,78.95
2018-12-17T08:28:37.948Z,78.85
2018-12-17T08:29:37.885Z,79.33
2018-12-17T08:30:37.823Z,79.14
2018-12-17T08:31:37.763Z,79.52
2018-12-17T08:32:37.700Z,79.42
2018-12-17T08:33:37.643Z,79.23
2018-12-17T08:34:37.576Z,79.33
2018-12-17T08:35:37.534Z,79.23
2018-12-17T08:36:37.453Z,79.14
2018-12-17T08:37:37.393Z,79.42
2018-12-17T08:38:37.331Z,79.42
2018-12-17T08:39:37.266Z,79.33
2018-12-17T08:40:37.205Z,79.33
2018-12-17T08:41:37.141Z,79.33
2018-12-17T08:42:37.080Z,79.52
2018-12-17T08:43:37.022Z,79.52
2018-12-17T08:44:36.955Z,79.23
2018-12-17T08:45:36.893Z,79.42
2018-12-17T08:46:36.834Z,79.42
2018-12-17T08:47:36.771Z,79.14
2018-12-17T08:48:36.708Z,79.33
2018-12-17T08:49:36.694Z,79.42
2018-12-17T08:50:36.587Z,79.23
2018-12-17T08:51:36.521Z,79.42
2018-12-17T08:52:36.461Z,79.04
2018-12-17T08:53:36.398Z,78.95
2018-12-17T08:54:36.338Z,79.14
2018-12-17T08:55:36.273Z,79.14
2018-12-17T08:56:36.216Z,79.04
2018-12-17T08:57:38.102Z,79.52
2018-12-17T08:58:36.090Z,79.61
2018-12-17T08:59:36.026Z,79.33
2018-12-17T09:00:35.963Z,79.52
2018-12-17T09:01:35.901Z,79.42
2018-12-17T09:02:35.843Z,79.42
2018-12-17T09:03:35.778Z,79.33
2018-12-17T09:04:35.716Z,79.42
2018-12-17T09:05:35.657Z,79.42
2018-12-17T09:06:35.592Z,79.42
2018-12-17T09:07:35.533Z,79.14
2018-12-17T09:08:35.469Z,79.42
2018-12-17T09:09:35.412Z,79.33
2018-12-17T09:10:35.349Z,79.33
2018-12-17T09:11:35.283Z,79.33
2018-12-17T09:12:35.221Z,79.14
2018-12-17T09:13:35.164Z,79.42
2018-12-17T09:14:35.095Z,79.42
2018-12-17T09:15:35.038Z,79.33
2018-12-17T09:16:35.039Z,79.33
2018-12-17T09:17:34.912Z,79.33
2018-12-17T09:18:34.847Z,79.33
2018-12-17T09:19:34.786Z,79.52
2018-12-17T09:20:34.765Z,79.42
2018-12-17T09:21:34.662Z,79.42
2018-12-17T09:22:34.602Z,79.33
2018-12-17T09:23:34.538Z,79.42
2018-12-17T09:24:34.476Z,79.23
2018-12-17T09:25:34.414Z,79.23
2018-12-17T09:26:34.351Z,79.14
2018-12-17T09:27:34.298Z,79.42
2018-12-17T09:28:34.229Z,79.42
2018-12-17T09:29:34.165Z,79.14
2018-12-17T09:30:41.162Z,78.95
2018-12-17T09:31:34.042Z,79.42
2018-12-17T09:32:33.980Z,78.95
2018-12-17T09:33:33.926Z,78.95
2018-12-17T09:34:33.856Z,79.46
2018-12-17T09:35:33.794Z,80.08
2018-12-17T09:36:33.739Z,79.99
2018-12-17T09:37:33.671Z,79.90
2018-12-17T09:38:33.613Z,79.71
2018-12-17T09:39:33.549Z,79.80
2018-12-17T09:40:33.491Z,79.71
2018-12-17T09:41:33.422Z,79.61
2018-12-17T09:42:33.359Z,79.52
2018-12-17T09:43:33.301Z,79.71
2018-12-17T09:44:33.239Z,79.61
2018-12-17T09:45:33.181Z,79.71
2018-12-17T09:46:33.112Z,79.61
2018-12-17T09:47:33.051Z,79.80
2018-12-17T09:48:32.989Z,79.80
2018-12-17T09:49:32.925Z,79.80
2018-12-17T09:50:32.864Z,79.71
2018-12-17T09:51:32.804Z,79.71
2018-12-17T09:52:32.743Z,79.61
2018-12-17T09:53:32.679Z,79.71
2018-12-17T09:54:32.617Z,79.80
2018-12-17T09:55:32.554Z,79.80
2018-12-17T09:56:32.494Z,80.08
2018-12-17T09:57:32.430Z,79.99
2018-12-17T09:58:32.368Z,80.27
2018-12-17T09:59:32.306Z,80.18
2018-12-17T10:00:32.250Z,80.18
2018-12-17T10:01:32.727Z,80.08
2018-12-17T10:02:32.122Z,80.08
2018-12-17T10:03:32.064Z,80.18
2018-12-17T10:04:32.000Z,80.08
2018-12-17T10:05:31.934Z,80.08
2018-12-17T10:06:31.875Z,80.18
2018-12-17T10:07:31.810Z,80.18
2018-12-17T10:08:31.750Z,79.80
2018-12-17T10:09:31.690Z,79.42
2018-12-17T10:10:31.626Z,79.71
2018-12-17T10:11:31.566Z,79.71
2018-12-17T10:12:31.505Z,79.55
2018-12-17T10:13:31.439Z,79.74
2018-12-17T10:14:31.378Z,79.84
2018-12-17T10:15:31.318Z,79.55
2018-12-17T10:16:31.257Z,79.74
2018-12-17T10:17:31.192Z,79.71
2018-12-17T10:18:36.851Z,79.74
2018-12-17T10:19:31.081Z,79.65
2018-12-17T10:20:31.006Z,79.74
2018-12-17T10:21:30.945Z,79.74
2018-12-17T10:22:30.883Z,79.80
2018-12-17T10:23:30.823Z,79.74
2018-12-17T10:24:30.768Z,79.74
2018-12-17T10:25:30.702Z,79.74
2018-12-17T10:26:30.638Z,79.84
2018-12-17T10:27:30.574Z,79.71
2018-12-17T10:28:30.511Z,80.22
2018-12-17T10:29:30.449Z,80.13
2018-12-17T10:30:32.740Z,80.13
2018-12-17T10:31:30.326Z,80.13
2018-12-17T10:32:30.313Z,80.13
2018-12-17T10:33:30.204Z,80.22
2018-12-17T10:34:30.141Z,80.03
2018-12-17T10:35:30.078Z,80.22
2018-12-17T10:36:30.020Z,80.32
2018-12-17T10:37:29.953Z,80.13
2018-12-17T10:38:29.892Z,80.13
2018-12-17T10:39:29.833Z,80.13
2018-12-17T10:40:29.771Z,80.13
2018-12-17T10:41:29.706Z,79.94
2018-12-17T10:42:29.645Z,79.74
2018-12-17T10:43:29.583Z,80.32
2018-12-17T10:44:29.522Z,79.84
2018-12-17T10:45:29.458Z,79.84
2018-12-17T10:46:29.397Z,79.65
2018-12-17T10:47:29.346Z,80.22
2018-12-17T10:48:29.275Z,80.13
2018-12-17T10:49:29.212Z,80.08
2018-12-17T10:50:29.500Z,79.94
2018-12-17T10:51:29.093Z,79.71
2018-12-17T10:52:29.035Z,80.03
2018-12-17T10:53:28.967Z,80.22
2018-12-17T10:54:28.903Z,80.27
2018-12-17T10:55:28.843Z,79.84
2018-12-17T10:56:28.780Z,80.03
2018-12-17T10:57:28.717Z,79.74
2018-12-17T10:58:28.655Z,79.94
2018-12-17T10:59:28.600Z,79.74
2018-12-17T11:00:28.532Z,80.03
2018-12-17T11:01:28.473Z,79.74
2018-12-17T11:02:28.410Z,80.03
2018-12-17T11:03:28.346Z,80.22
2018-12-17T11:04:28.284Z,80.32
2018-12-17T11:05:28.221Z,80.03
2018-12-17T11:06:28.162Z,80.13
2018-12-17T11:07:28.103Z,80.22
2018-12-17T11:08:28.038Z,80.13
2018-12-17T11:09:27.974Z,80.22
2018-12-17T11:10:27.912Z,80.13
2018-12-17T11:11:27.852Z,80.22
2018-12-17T11:12:27.790Z,80.32
2018-12-17T11:13:27.727Z,80.32
2018-12-17T11:14:27.665Z,80.22
2018-12-17T11:15:27.606Z,80.32
2018-12-17T11:16:27.542Z,80.13
2018-12-17T11:17:27.481Z,80.41
2018-12-17T11:18:27.422Z,80.13
2018-12-17T11:19:27.374Z,80.22
2018-12-17T11:20:27.300Z,80.41
2018-12-17T11:21:27.231Z,80.32
2018-12-17T11:22:27.170Z,80.22
2018-12-17T11:23:27.109Z,80.03
2018-12-17T11:24:27.048Z,80.32
2018-12-17T11:25:26.994Z,80.13
2018-12-17T11:26:26.926Z,79.94
2018-12-17T11:27:26.861Z,80.22
2018-12-17T11:28:26.801Z,80.13
2018-12-17T11:29:26.737Z,80.22
2018-12-17T11:30:26.676Z,80.32
2018-12-17T11:31:26.615Z,80.22
2018-12-17T11:32:26.553Z,80.22
2018-12-17T11:33:26.492Z,80.41
2018-12-17T11:34:26.429Z,80.60
2018-12-17T11:35:26.367Z,80.32
2018-12-17T11:36:26.306Z,80.13
2018-12-17T11:37:26.244Z,80.13
2018-12-17T11:38:26.184Z,80.22
2018-12-17T11:39:26.121Z,79.94
2018-12-17T11:40:26.058Z,80.03
2018-12-17T11:41:25.995Z,80.13
2018-12-17T11:42:25.935Z,80.41
2018-12-17T11:43:25.878Z,80.13
2018-12-17T11:44:25.811Z,80.32
2018-12-17T11:45:25.748Z,80.32
2018-12-17T11:46:25.689Z,80.32
2018-12-17T11:47:25.628Z,80.32
2018-12-17T11:48:25.567Z,80.13
2018-12-17T11:49:25.503Z,80.32
2018-12-17T11:50:25.439Z,80.51
2018-12-17T11:51:25.380Z,80.32
2018-12-17T11:52:25.317Z,80.32
2018-12-17T11:53:25.260Z,80.22
2018-12-17T11:54:25.194Z,80.13
2018-12-17T11:55:25.135Z,79.94
2018-12-17T11:56:25.072Z,80.13
2018-12-17T11:57:25.007Z,80.22
2018-12-17T11:58:24.951Z,80.13
2018-12-17T11:59:24.885Z,80.22
2018-12-17T12:00:24.822Z,80.22
2018-12-17T12:01:24.758Z,80.13
2018-12-17T12:02:24.704Z,80.32
2018-12-17T12:03:24.649Z,80.13
2018-12-17T12:04:24.586Z,80.41
2018-12-17T12:05:24.512Z,80.51
2018-12-17T12:06:26.149Z,80.41
2018-12-17T12:07:24.391Z,80.60
2018-12-17T12:08:24.327Z,80.13
2018-12-17T12:09:24.265Z,80.13
2018-12-17T12:10:31.342Z,80.03
2018-12-17T12:12:17.054Z,80.03
2018-12-17T12:13:16.924Z,79.94
2018-12-17T12:15:09.700Z,79.94
2018-12-17T12:16:09.634Z,80.13
2018-12-17T12:18:02.476Z,80.13
2018-12-17T12:19:02.344Z,80.03
2018-12-17T12:20:55.124Z,80.13
2018-12-17T12:21:55.057Z,80.13
2018-12-17T12:23:47.913Z,80.13
2018-12-17T12:24:47.767Z,80.22
2018-12-17T12:26:40.547Z,79.94
2018-12-17T12:27:40.483Z,79.94
2018-12-17T12:29:33.299Z,80.13
2018-12-17T12:30:33.199Z,80.22
2018-12-17T12:32:25.973Z,80.32
2018-12-17T12:33:25.905Z,80.32
2018-12-17T12:35:18.752Z,80.03
2018-12-17T12:36:18.616Z,80.41
2018-12-17T12:38:11.397Z,80.13
2018-12-17T12:39:11.330Z,79.94
2018-12-17T12:41:04.171Z,80.13
2018-12-17T12:42:04.042Z,80.13
2018-12-17T12:43:56.821Z,80.32
2018-12-17T12:44:56.752Z,80.32
2018-12-17T12:46:49.698Z,80.51
2018-12-17T12:47:49.466Z,80.32
2018-12-17T12:49:42.242Z,80.13
2018-12-17T12:50:42.184Z,80.60
2018-12-17T12:52:35.024Z,81.17
2018-12-17T12:53:34.887Z,81.17
2018-12-17T12:55:27.663Z,81.26
2018-12-17T12:56:27.605Z,80.79
2018-12-17T12:58:20.436Z,81.07
2018-12-17T12:59:20.307Z,80.98
2018-12-17T13:01:13.086Z,81.26
2018-12-17T13:02:13.017Z,81.26
2018-12-17T13:04:05.850Z,80.88
2018-12-17T13:05:05.726Z,81.17
2018-12-17T13:06:58.504Z,81.36
2018-12-17T13:07:58.439Z,80.69
2018-12-17T13:12:43.925Z,81.17